ADDS METAR Data INFO
IDs: Format: Raw Decoded Include TAF

Data at: 1842 UTC 17 Oct 2017

KSTK 171830Z AUTO 21010G15KT 10SM CLR 23/M02 A3013 RMK AO2
KSTK 171810Z AUTO 21009KT 10SM CLR 22/M01 A3014 RMK AO2
KSTK 171750Z AUTO 22009KT 10SM CLR 21/00 A3015 RMK AO2
KSTK 171730Z AUTO 21007KT 10SM CLR 19/01 A3016 RMK AO2
KSTK 171710Z AUTO 20009KT 10SM CLR 17/01 A3017 RMK AO2
KSTK 171645Z AUTO 20006KT 10SM CLR 14/01 A3018 RMK AO2
KSTK 171625Z AUTO 18007KT 10SM CLR 12/01 A3018 RMK AO2
KSTK 171605Z AUTO 20007KT 10SM CLR 10/00 A3019 RMK AO2
KSTK 171550Z AUTO 20008KT 10SM CLR 09/00 A3020 RMK AO2
KSTK 171530Z AUTO 20008KT 10SM CLR 07/00 A3020 RMK AO2
KSTK 171510Z AUTO 20007KT 10SM CLR 06/00 A3020 RMK AO2
KSTK 171445Z AUTO 21005KT 10SM CLR 03/00 A3021 RMK AO2
KSTK 171425Z AUTO 21007KT 10SM CLR 02/M01 A3021 RMK AO2
KSTK 171410Z AUTO 21006KT 10SM CLR 01/M01 A3021 RMK AO2
KSTK 171345Z AUTO 21006KT 7SM CLR 00/M02 A3020 RMK AO2
KSTK 171325Z AUTO 21006KT 10SM CLR M01/M03 A3020 RMK AO2
KSTK 171305Z AUTO 20005KT 10SM CLR M02/M03 A3020 RMK AO2
KSTK 171250Z AUTO 19004KT 10SM CLR M01/M03 A3020 RMK AO2
KSTK 171230Z AUTO 18004KT 10SM CLR M01/M03 A3021 RMK AO2
KSTK 171210Z AUTO 19005KT 10SM CLR M02/M03 A3021 RMK AO2
KSTK 171150Z AUTO 18006KT 10SM CLR M02/M03 A3020 RMK AO2
KSTK 171125Z AUTO 21004KT 10SM CLR M01/M03 A3021 RMK AO2
KSTK 171105Z AUTO 18004KT 10SM CLR 00/M02 A3020 RMK AO2
KSTK 171045Z AUTO 21005KT 10SM CLR 00/M02 A3020 RMK AO2
KSTK 171025Z AUTO 22005KT 10SM CLR 00/M02 A3020 RMK AO2
KSTK 171005Z AUTO 22005KT 10SM CLR 00/M03 A3020 RMK AO2
KSTK 170950Z AUTO 00000KT 10SM CLR 00/M03 A3019 RMK AO2
KSTK 170930Z AUTO 22003KT 10SM CLR 00/M02 A3019 RMK AO2
KSTK 170910Z AUTO 21007KT 10SM CLR 00/M03 A3019 RMK AO2
KSTK 170850Z AUTO 22006KT 10SM CLR 00/M03 A3020 RMK AO2
KSTK 170830Z AUTO 19005KT 10SM CLR 00/M02 A3021 RMK AO2
KSTK 170810Z AUTO 20005KT 10SM CLR 00/M02 A3020 RMK AO2
KSTK 170750Z AUTO 19004KT 10SM CLR 00/M02 A3020 RMK AO2
KSTK 170730Z AUTO 18005KT 10SM CLR 00/M02 A3020 RMK AO2
KSTK 170710Z AUTO 00000KT 10SM CLR 00/M02 A3020 RMK AO2
KSTK 170645Z AUTO 24006KT 10SM CLR 00/M02 A3020 RMK AO2
KSTK 170625Z AUTO 20004KT 10SM CLR 00/M02 A3020 RMK AO2
KSTK 170610Z AUTO 10004KT 10SM CLR 04/M02 A3020 RMK AO2
KSTK 170545Z AUTO 26003KT 10SM CLR 02/M02 A3019 RMK AO2
KSTK 170530Z AUTO 33004KT 10SM CLR 03/M01 A3019 RMK AO2
KSTK 170510Z AUTO 00000KT 10SM CLR 03/M01 A3019 RMK AO2
KSTK 170445Z AUTO 00000KT 10SM CLR 03/M02 A3019 RMK AO2
KSTK 170425Z AUTO 00000KT 10SM CLR 06/M02 A3020 RMK AO2
KSTK 170405Z AUTO 00000KT 10SM CLR 06/M02 A3019 RMK AO2
KSTK 170345Z AUTO 00000KT 10SM CLR 07/M02 A3019 RMK AO2
KSTK 170325Z AUTO 00000KT 10SM CLR 07/M02 A3019 RMK AO2
KSTK 170305Z AUTO 34004KT 10SM CLR 08/M02 A3019 RMK AO2
KSTK 170250Z AUTO 32006KT 10SM CLR 07/M01 A3019 RMK AO2
KSTK 170230Z AUTO 00000KT 10SM CLR 11/M03 A3018 RMK AO2
KSTK 170210Z AUTO 16003KT 10SM CLR 10/M02 A3017 RMK AO2
KSTK 170150Z AUTO 36007KT 10SM CLR 11/M02 A3017 RMK AO2
KSTK 170130Z AUTO 36005KT 10SM CLR 13/M05 A3016 RMK AO2
KSTK 170110Z AUTO 00000KT 10SM CLR 12/M03 A3016 RMK AO2
KSTK 170045Z AUTO 35003KT 10SM CLR 16/M04 A3015 RMK AO2
KSTK 170025Z AUTO 00000KT 10SM CLR 16/M02 A3014 RMK AO2
KSTK 170010Z AUTO 00000KT 10SM CLR 19/M05 A3014 RMK AO2
KSTK 162350Z AUTO 36003KT 10SM CLR 21/M05 A3013 RMK AO2
KSTK 162325Z AUTO 02003KT 10SM CLR 22/M04 A3013 RMK AO2
KSTK 162310Z AUTO 03003KT 10SM CLR 22/M04 A3012 RMK AO2
KSTK 162250Z AUTO 01008KT 10SM CLR 23/M03 A3012 RMK AO2
KSTK 162225Z AUTO 26005KT 10SM CLR 25/M06 A3011 RMK AO2
KSTK 162210Z AUTO 26007KT 10SM CLR 26/M05 A3011 RMK AO2
KSTK 162150Z AUTO 29008KT 10SM CLR 25/M06 A3012 RMK AO2
KSTK 162130Z AUTO 31011KT 10SM CLR 26/M07 A3012 RMK AO2
KSTK 162110Z AUTO 32012G17KT 10SM CLR 27/M08 A3012 RMK AO2
KSTK 162045Z AUTO 30005KT 10SM CLR 26/M05 A3013 RMK AO2
KSTK 162025Z AUTO 24007KT 10SM CLR 26/M03 A3013 RMK AO2
KSTK 162010Z AUTO 24006KT 10SM CLR 25/M02 A3014 RMK AO2
KSTK 161950Z AUTO 18008KT 10SM CLR 24/00 A3014 RMK AO2
KSTK 161930Z AUTO 21004KT 10SM CLR 23/00 A3015 RMK AO2
KSTK 161910Z AUTO 20006KT 10SM CLR 21/01 A3017 RMK AO2
KSTK 161845Z AUTO 19005KT 10SM CLR 20/01 A3019 RMK AO2
KSTK 161825Z AUTO 23007KT 10SM CLR 20/01 A3020 RMK AO2
KSTK 161810Z AUTO 22008KT 10SM CLR 18/01 A3021 RMK AO2
KSTK 161750Z AUTO 22009KT 10SM CLR 18/00 A3021 RMK AO2
KSTK 161730Z AUTO 22008KT 10SM CLR 17/01 A3023 RMK AO2
KSTK 161710Z AUTO 18006KT 10SM CLR 15/02 A3023 RMK AO2
KSTK 161650Z AUTO 21007KT 10SM CLR 13/01 A3024 RMK AO2
KSTK 161630Z AUTO 20007KT 10SM CLR 12/02 A3025 RMK AO2
KSTK 161610Z AUTO 19008KT 10SM CLR 10/01 A3026 RMK AO2
KSTK 161550Z AUTO 22010KT 10SM CLR 10/01 A3026 RMK AO2
KSTK 161530Z AUTO 22008KT 10SM CLR 08/01 A3026 RMK AO2
KSTK 161510Z AUTO 19005KT 10SM CLR 07/01 A3027 RMK AO2
KSTK 161445Z AUTO 22007KT 10SM CLR 05/01 A3027 RMK AO2
KSTK 161425Z AUTO 21006KT 10SM CLR 03/01 A3027 RMK AO2
KSTK 161410Z AUTO 21005KT 10SM CLR 02/00 A3028 RMK AO2
KSTK 161350Z AUTO 20006KT 10SM CLR 00/00 A3027 RMK AO2
KSTK 161330Z AUTO 20005KT 10SM CLR 00/M01 A3027 RMK AO2
KSTK 161310Z AUTO 20006KT 10SM CLR M01/M02 A3028 RMK AO2
KSTK 161250Z AUTO 19004KT 10SM CLR M01/M02 A3028 RMK AO2
KSTK 161225Z AUTO 21005KT 10SM CLR 00/M02 A3028 RMK AO2
KSTK 161210Z AUTO 22006KT 10SM CLR M01/M02 A3029 RMK AO2
KSTK 161150Z AUTO 20006KT 10SM CLR M01/M02 A3029 RMK AO2
KSTK 161130Z AUTO 18004KT 10SM CLR M01/M02 A3029 RMK AO2
KSTK 161105Z AUTO 19005KT 10SM CLR M01/M03 A3030 RMK AO2
KSTK 161050Z AUTO 20005KT 10SM CLR 00/M02 A3030 RMK AO2
KSTK 161025Z AUTO 21005KT 10SM CLR M01/M02 A3030 RMK AO2
KSTK 161005Z AUTO 20006KT 10SM CLR M01/M02 A3030 RMK AO2
KSTK 160950Z AUTO 19004KT 10SM CLR 00/M02 A3030 RMK AO2
KSTK 160930Z AUTO 21006KT 10SM CLR 00/M02 A3030 RMK AO2
KSTK 160910Z AUTO 23007KT 10SM CLR 00/M02 A3030 RMK AO2
KSTK 160850Z AUTO 25006KT 10SM CLR 00/M02 A3031 RMK AO2
KSTK 160830Z AUTO 23007KT 10SM CLR 00/M02 A3032 RMK AO2
KSTK 160810Z AUTO 24006KT 10SM CLR 01/M02 A3033 RMK AO2
KSTK 160745Z AUTO 24006KT 10SM CLR 01/M02 A3033 RMK AO2
KSTK 160725Z AUTO 00000KT 10SM CLR 00/M02 A3033 RMK AO2
KSTK 160705Z AUTO 00000KT 10SM CLR 03/M02 A3034 RMK AO2
KSTK 160645Z AUTO 27005KT 10SM CLR 01/M02 A3034 RMK AO2